Time;durP1;ratioP1;P1;durP2;ratioP2;P2;SDS_P1;SDS_P2;PMS_P1;PMS_P2;Temp;Humidity;BMP_temperature;BMP_pressure;BME280_temperature;BME280_humidity;BME280_pressure;Samples;Min_cycle;Max_cycle;Signal;HPM_P1;HPM_P2
2023/09/15 00:00:28;;;;;;;8.05;4.55;;;;;;;;;;5020855;28;20510;-62
2023/09/15 00:02:56;;;;;;;8.98;4.88;;;;;;;;;;5026443;28;21199;-62
2023/09/15 00:05:23;;;;;;;8.63;4.75;;;;;;;;;;5024907;28;20419;-61
2023/09/15 00:07:51;;;;;;;8.95;4.50;;;;;;;;;;5026200;28;20763;-62
2023/09/15 00:10:19;;;;;;;7.88;4.72;;;;;;;;;;5028058;28;20411;-62
2023/09/15 00:12:47;;;;;;;10.00;4.63;;;;;;;;;;5027409;28;20633;-62
2023/09/15 00:15:15;;;;;;;8.68;5.15;;;;;;;;;;5024797;28;20411;-63
2023/09/15 00:17:43;;;;;;;8.50;4.32;;;;;;;;;;5022893;28;20777;-62
2023/09/15 00:20:13;;;;;;;8.93;4.43;;;;;;;;;;5021376;28;20418;-62
2023/09/15 00:22:40;;;;;;;9.23;4.90;;;;;;;;;;5020039;28;20442;-62
2023/09/15 00:25:08;;;;;;;11.00;5.05;;;;;;;;;;5022863;28;20428;-62
2023/09/15 00:27:35;;;;;;;9.57;4.78;;;;;;;;;;5022504;28;20502;-62
2023/09/15 00:30:03;;;;;;;8.82;4.93;;;;;;;;;;5023101;28;20462;-61
2023/09/15 00:32:30;;;;;;;9.63;4.82;;;;;;;;;;5029455;28;20415;-62
2023/09/15 00:34:57;;;;;;;7.95;4.55;;;;;;;;;;5025766;28;20415;-62
2023/09/15 00:37:24;;;;;;;9.50;5.07;;;;;;;;;;5024819;28;20406;-62
2023/09/15 00:39:51;;;;;;;9.55;4.82;;;;;;;;;;5023315;28;20420;-62
2023/09/15 00:42:19;;;;;;;6.28;4.20;;;;;;;;;;5028273;28;20419;-62
2023/09/15 00:44:46;;;;;;;6.10;4.43;;;;;;;;;;5026933;28;20415;-62
2023/09/15 00:47:15;;;;;;;9.85;4.82;;;;;;;;;;5030141;28;20437;-62
2023/09/15 00:49:42;;;;;;;8.52;4.63;;;;;;;;;;5024165;28;20893;-62
2023/09/15 00:52:09;;;;;;;11.50;4.70;;;;;;;;;;5028000;28;20427;-62
2023/09/15 00:54:36;;;;;;;5.85;4.07;;;;;;;;;;5026239;28;20753;-61
2023/09/15 00:57:03;;;;;;;7.78;4.40;;;;;;;;;;5019031;28;20783;-62
2023/09/15 00:59:31;;;;;;;6.00;3.80;;;;;;;;;;5026593;28;20415;-62
2023/09/15 01:01:58;;;;;;;8.00;4.90;;;;;;;;;;5027470;28;20412;-61
2023/09/15 01:04:27;;;;;;;5.63;4.07;;;;;;;;;;5029806;28;20434;-63
2023/09/15 01:06:56;;;;;;;6.95;3.95;;;;;;;;;;5025831;28;20800;-61
2023/09/15 01:09:25;;;;;;;7.65;4.68;;;;;;;;;;5030481;28;20441;-62
2023/09/15 01:11:52;;;;;;;6.95;3.88;;;;;;;;;;5029667;28;20445;-62
2023/09/15 01:14:19;;;;;;;5.97;3.78;;;;;;;;;;5026392;28;20415;-62
2023/09/15 01:16:51;;;;;;;7.20;3.80;;;;;;;;;;5030737;28;20469;-62
2023/09/15 01:19:27;;;;;;;5.90;3.70;;;;;;;;;;5015331;28;20943;-62
2023/09/15 01:22:10;;;;;;;5.72;3.50;;;;;;;;;;5030057;28;20419;-62
2023/09/15 01:24:58;;;;;;;6.38;3.88;;;;;;;;;;5029464;28;20475;-62
2023/09/15 01:27:35;;;;;;;6.27;3.60;;;;;;;;;;5015208;28;20436;-62
2023/09/15 01:30:04;;;;;;;6.13;4.17;;;;;;;;;;5031683;28;20423;-62
2023/09/15 01:32:33;;;;;;;5.38;3.58;;;;;;;;;;5029002;28;20472;-62
2023/09/15 01:35:03;;;;;;;7.15;3.90;;;;;;;;;;5030403;28;20424;-62
2023/09/15 01:37:30;;;;;;;7.45;3.63;;;;;;;;;;5031593;28;20465;-63
2023/09/15 01:39:59;;;;;;;6.57;3.58;;;;;;;;;;5032280;28;20966;-62
2023/09/15 01:42:26;;;;;;;6.55;3.35;;;;;;;;;;5024738;28;20411;-62
2023/09/15 01:44:54;;;;;;;8.25;3.80;;;;;;;;;;5029393;28;20794;-62
2023/09/15 01:47:23;;;;;;;5.68;3.67;;;;;;;;;;5029817;28;20427;-61
2023/09/15 01:49:51;;;;;;;6.70;3.92;;;;;;;;;;5029313;28;20469;-61
2023/09/15 01:52:19;;;;;;;7.68;3.80;;;;;;;;;;5032976;28;20410;-62
2023/09/15 01:54:46;;;;;;;6.65;3.10;;;;;;;;;;5026306;28;20416;-61
2023/09/15 01:57:13;;;;;;;6.30;3.30;;;;;;;;;;5023372;28;20459;-62
2023/09/15 01:59:40;;;;;;;6.60;3.22;;;;;;;;;;5031464;28;20817;-62
2023/09/15 02:02:07;;;;;;;5.60;3.47;;;;;;;;;;5030108;28;20411;-62
2023/09/15 02:04:36;;;;;;;7.13;3.33;;;;;;;;;;5029080;28;20415;-62
2023/09/15 02:07:03;;;;;;;5.77;3.20;;;;;;;;;;5027797;28;20444;-63
2023/09/15 02:09:30;;;;;;;7.63;3.92;;;;;;;;;;5028922;28;20416;-62
2023/09/15 02:11:57;;;;;;;6.68;3.38;;;;;;;;;;5023532;28;20818;-62
2023/09/15 02:14:25;;;;;;;6.88;3.58;;;;;;;;;;5030601;28;20492;-62
2023/09/15 02:16:52;;;;;;;7.32;3.55;;;;;;;;;;5019880;28;20419;-61
2023/09/15 02:19:19;;;;;;;7.25;3.65;;;;;;;;;;5027629;28;20415;-62
2023/09/15 02:21:47;;;;;;;7.35;3.90;;;;;;;;;;5028239;28;20411;-62
2023/09/15 02:24:16;;;;;;;5.35;3.50;;;;;;;;;;5024748;28;20836;-62
2023/09/15 02:26:43;;;;;;;5.38;3.30;;;;;;;;;;5020534;28;20549;-62
2023/09/15 02:29:10;;;;;;;6.95;3.20;;;;;;;;;;5025404;28;20411;-63
2023/09/15 02:31:38;;;;;;;7.77;3.43;;;;;;;;;;5031956;28;20943;-62
2023/09/15 02:34:05;;;;;;;7.57;3.28;;;;;;;;;;5032188;28;20419;-62
2023/09/15 02:36:32;;;;;;;5.32;3.40;;;;;;;;;;5024558;28;20469;-62
2023/09/15 02:39:01;;;;;;;7.18;3.15;;;;;;;;;;5027150;28;20829;-62
2023/09/15 02:41:28;;;;;;;5.75;3.35;;;;;;;;;;5028870;28;20411;-62
2023/09/15 02:43:55;;;;;;;7.45;3.42;;;;;;;;;;5029011;28;20787;-62
2023/09/15 02:46:22;;;;;;;9.15;3.60;;;;;;;;;;5030300;28;20415;-63
2023/09/15 02:48:49;;;;;;;6.17;3.50;;;;;;;;;;5025050;28;20419;-61
2023/09/15 02:51:16;;;;;;;6.82;3.55;;;;;;;;;;5027988;28;20963;-62
2023/09/15 02:53:43;;;;;;;7.90;3.47;;;;;;;;;;5026866;28;20496;-62
2023/09/15 02:56:11;;;;;;;5.53;3.05;;;;;;;;;;5016413;28;20409;-62
2023/09/15 02:58:38;;;;;;;7.22;3.45;;;;;;;;;;5020526;28;20473;-62
2023/09/15 03:01:12;;;;;;;6.28;3.55;;;;;;;;;;5025696;28;20424;-61
2023/09/15 03:03:39;;;;;;;6.70;3.00;;;;;;;;;;5023980;28;20504;-62
2023/09/15 03:06:06;;;;;;;6.82;3.42;;;;;;;;;;5026934;28;20419;-62
2023/09/15 03:08:34;;;;;;;6.00;3.50;;;;;;;;;;5030117;28;20509;-63
2023/09/15 03:11:01;;;;;;;6.35;3.33;;;;;;;;;;5028556;28;20775;-61
2023/09/15 03:13:29;;;;;;;6.50;3.60;;;;;;;;;;5028186;28;20411;-62
2023/09/15 03:15:57;;;;;;;5.72;3.47;;;;;;;;;;5029498;28;20420;-63
2023/09/15 03:18:24;;;;;;;9.23;3.60;;;;;;;;;;5024977;28;20442;-62
2023/09/15 03:20:51;;;;;;;8.70;3.47;;;;;;;;;;5028490;28;20415;-62
2023/09/15 03:23:18;;;;;;;6.60;3.40;;;;;;;;;;5028183;28;20414;-62
2023/09/15 03:25:45;;;;;;;7.15;3.63;;;;;;;;;;5014988;28;20415;-62
2023/09/15 03:28:12;;;;;;;10.50;3.80;;;;;;;;;;5022153;28;20836;-63
2023/09/15 03:30:41;;;;;;;6.70;3.50;;;;;;;;;;5025309;28;20874;-63
2023/09/15 03:33:08;;;;;;;6.32;3.75;;;;;;;;;;5027426;28;20413;-62
2023/09/15 03:35:35;;;;;;;7.68;4.10;;;;;;;;;;5029462;28;20410;-62
2023/09/15 03:38:02;;;;;;;8.27;4.15;;;;;;;;;;5025948;28;20415;-62
2023/09/15 03:40:30;;;;;;;8.75;4.50;;;;;;;;;;5030149;28;20902;-62
2023/09/15 03:42:57;;;;;;;9.53;4.80;;;;;;;;;;5019404;28;20417;-62
2023/09/15 03:45:24;;;;;;;8.65;4.78;;;;;;;;;;5029097;28;20828;-62
2023/09/15 03:47:52;;;;;;;8.43;4.67;;;;;;;;;;5024090;28;20429;-62
2023/09/15 03:50:21;;;;;;;9.15;4.20;;;;;;;;;;5029127;28;20442;-62
2023/09/15 03:52:48;;;;;;;8.98;4.13;;;;;;;;;;5020528;28;20892;-62
2023/09/15 03:55:17;;;;;;;8.80;3.50;;;;;;;;;;5019713;28;20419;-62
2023/09/15 03:57:44;;;;;;;6.55;4.20;;;;;;;;;;5023230;28;20446;-62
2023/09/15 04:00:17;;;;;;;6.82;4.32;;;;;;;;;;5025670;28;20770;-62
2023/09/15 04:02:44;;;;;;;7.40;4.40;;;;;;;;;;5027627;28;20437;-63
2023/09/15 04:05:13;;;;;;;9.07;4.57;;;;;;;;;;5028766;28;20936;-62
2023/09/15 04:07:40;;;;;;;10.88;4.78;;;;;;;;;;5023641;28;20443;-62
2023/09/15 04:10:08;;;;;;;9.25;4.70;;;;;;;;;;5028174;28;20462;-62
2023/09/15 04:12:35;;;;;;;8.32;4.45;;;;;;;;;;5026866;28;20415;-63
2023/09/15 04:15:04;;;;;;;10.98;5.03;;;;;;;;;;5030602;28;20473;-62
2023/09/15 04:17:31;;;;;;;7.57;5.17;;;;;;;;;;5029962;28;20947;-62
2023/09/15 04:19:59;;;;;;;8.70;4.78;;;;;;;;;;5029209;28;20407;-61
2023/09/15 04:22:27;;;;;;;8.73;4.35;;;;;;;;;;5026729;28;20419;-62
2023/09/15 04:24:54;;;;;;;10.13;3.93;;;;;;;;;;5023445;28;20560;-61
2023/09/15 04:27:21;;;;;;;8.55;3.88;;;;;;;;;;5016468;28;20531;-63
2023/09/15 04:29:52;;;;;;;8.38;4.22;;;;;;;;;;5025219;28;20474;-62
2023/09/15 04:32:19;;;;;;;7.10;4.00;;;;;;;;;;5025553;28;20414;-62
2023/09/15 04:34:47;;;;;;;8.45;3.90;;;;;;;;;;5023332;28;20841;-62
2023/09/15 04:37:14;;;;;;;8.45;3.83;;;;;;;;;;5028685;28;20498;-62
2023/09/15 04:39:42;;;;;;;8.18;3.85;;;;;;;;;;5025580;28;20419;-62
2023/09/15 04:42:10;;;;;;;9.10;3.60;;;;;;;;;;5027841;28;20420;-62
2023/09/15 04:44:37;;;;;;;7.00;3.63;;;;;;;;;;5023872;28;20469;-62
2023/09/15 04:47:05;;;;;;;5.10;3.65;;;;;;;;;;5023450;28;20413;-62
2023/09/15 04:49:32;;;;;;;7.95;3.35;;;;;;;;;;5024620;28;20526;-62
2023/09/15 04:51:59;;;;;;;7.10;3.67;;;;;;;;;;5025140;28;20411;-61
2023/09/15 04:54:26;;;;;;;5.55;4.10;;;;;;;;;;5025939;28;20421;-62
2023/09/15 04:56:55;;;;;;;9.25;4.07;;;;;;;;;;5021426;28;20907;-62
2023/09/15 04:59:22;;;;;;;7.70;3.85;;;;;;;;;;5023444;28;20411;-63
2023/09/15 05:01:49;;;;;;;9.55;3.63;;;;;;;;;;5022021;28;20415;-62
2023/09/15 05:04:18;;;;;;;8.15;4.05;;;;;;;;;;5029784;28;20465;-63
2023/09/15 05:06:45;;;;;;;6.97;3.65;;;;;;;;;;5028678;28;20425;-62
2023/09/15 05:09:14;;;;;;;6.00;3.63;;;;;;;;;;5023179;28;20443;-63
2023/09/15 05:11:41;;;;;;;8.98;3.55;;;;;;;;;;5030069;28;20447;-63
2023/09/15 05:14:10;;;;;;;6.30;3.60;;;;;;;;;;5023396;28;20429;-62
2023/09/15 05:16:37;;;;;;;6.97;3.65;;;;;;;;;;5027739;28;20816;-62
2023/09/15 05:19:04;;;;;;;7.32;4.00;;;;;;;;;;5023017;28;20419;-62
2023/09/15 05:21:31;;;;;;;7.13;3.80;;;;;;;;;;5030418;28;20415;-62
2023/09/15 05:23:58;;;;;;;10.93;3.78;;;;;;;;;;5026859;28;20901;-63
2023/09/15 05:26:25;;;;;;;6.40;3.22;;;;;;;;;;5020027;28;20470;-62
2023/09/15 05:28:52;;;;;;;6.90;3.47;;;;;;;;;;5022030;28;20453;-62
2023/09/15 05:31:25;;;;;;;8.05;3.60;;;;;;;;;;5023395;28;20415;-62
2023/09/15 05:33:53;;;;;;;5.30;3.35;;;;;;;;;;5025215;28;20421;-61
2023/09/15 05:36:20;;;;;;;8.63;3.90;;;;;;;;;;5026317;28;20417;-62
2023/09/15 05:38:47;;;;;;;7.07;3.20;;;;;;;;;;5019700;28;20474;-63
2023/09/15 05:41:14;;;;;;;11.75;3.95;;;;;;;;;;5027375;28;20410;-62
2023/09/15 05:43:41;;;;;;;9.40;3.50;;;;;;;;;;5019242;28;20442;-63
2023/09/15 05:46:08;;;;;;;7.68;3.30;;;;;;;;;;5013938;28;20423;-62
2023/09/15 05:48:36;;;;;;;7.00;3.38;;;;;;;;;;5019122;28;20437;-62
2023/09/15 05:51:04;;;;;;;9.77;3.80;;;;;;;;;;5018090;28;20512;-65
2023/09/15 05:53:31;;;;;;;8.55;3.28;;;;;;;;;;5020873;28;20457;-64
2023/09/15 05:55:58;;;;;;;7.43;3.42;;;;;;;;;;5021410;28;20419;-64
2023/09/15 05:58:26;;;;;;;5.55;3.30;;;;;;;;;;5025202;28;20425;-64
2023/09/15 06:00:55;;;;;;;6.15;3.08;;;;;;;;;;5022272;28;20416;-62
2023/09/15 06:03:23;;;;;;;7.38;3.20;;;;;;;;;;5024874;28;20415;-64
2023/09/15 06:05:51;;;;;;;7.45;3.40;;;;;;;;;;5026589;28;20493;-62
2023/09/15 06:08:19;;;;;;;6.93;3.20;;;;;;;;;;5028145;28;20434;-62
2023/09/15 06:10:46;;;;;;;6.90;3.33;;;;;;;;;;5028755;28;20446;-62
2023/09/15 06:13:13;;;;;;;7.65;3.20;;;;;;;;;;5027532;28;20412;-63
2023/09/15 06:15:40;;;;;;;9.32;3.40;;;;;;;;;;5022700;28;20406;-63
2023/09/15 06:18:07;;;;;;;6.53;3.17;;;;;;;;;;5027725;28;20467;-62
2023/09/15 06:20:34;;;;;;;7.13;3.10;;;;;;;;;;5027173;28;20419;-63
2023/09/15 06:23:03;;;;;;;7.03;2.90;;;;;;;;;;5024758;28;20426;-65
2023/09/15 06:25:31;;;;;;;6.97;3.20;;;;;;;;;;5025237;28;20495;-62
2023/09/15 06:27:59;;;;;;;7.53;3.00;;;;;;;;;;5020513;28;20518;-62
2023/09/15 06:30:28;;;;;;;7.03;3.38;;;;;;;;;;5027502;28;20508;-62
2023/09/15 06:32:55;;;;;;;5.90;2.78;;;;;;;;;;5020348;28;20411;-62
2023/09/15 06:35:23;;;;;;;7.47;3.10;;;;;;;;;;5028795;28;20834;-62
2023/09/15 06:37:50;;;;;;;6.60;2.63;;;;;;;;;;5026222;28;20518;-63
2023/09/15 06:40:18;;;;;;;9.20;3.15;;;;;;;;;;5025903;28;20411;-61
2023/09/15 06:42:46;;;;;;;6.30;3.03;;;;;;;;;;5026257;28;20415;-61
2023/09/15 06:45:13;;;;;;;9.70;3.03;;;;;;;;;;5024804;28;20519;-62
2023/09/15 06:47:40;;;;;;;6.65;2.60;;;;;;;;;;5026903;28;20415;-62
2023/09/15 06:50:08;;;;;;;9.93;2.85;;;;;;;;;;5022383;28;20846;-62
2023/09/15 06:52:35;;;;;;;8.23;2.80;;;;;;;;;;5026613;28;20503;-62
2023/09/15 06:55:02;;;;;;;8.57;2.80;;;;;;;;;;5023155;28;20423;-62
2023/09/15 06:57:30;;;;;;;9.57;3.05;;;;;;;;;;5021486;28;20771;-62
2023/09/15 06:59:57;;;;;;;10.80;3.10;;;;;;;;;;5022658;28;20420;-62
2023/09/15 07:02:24;;;;;;;5.28;2.40;;;;;;;;;;5020008;28;20834;-62
2023/09/15 07:04:51;;;;;;;5.70;2.75;;;;;;;;;;5019987;28;20417;-62
2023/09/15 07:07:18;;;;;;;7.90;3.22;;;;;;;;;;5028589;28;20943;-63
2023/09/15 07:09:45;;;;;;;7.82;2.50;;;;;;;;;;5024687;28;20430;-62
2023/09/15 07:12:12;;;;;;;10.07;2.80;;;;;;;;;;5029210;28;20930;-63
2023/09/15 07:14:40;;;;;;;5.93;2.90;;;;;;;;;;5022346;28;20537;-62
2023/09/15 07:17:07;;;;;;;9.02;2.70;;;;;;;;;;5021674;28;20413;-64
2023/09/15 07:19:34;;;;;;;5.60;2.73;;;;;;;;;;5017687;28;20406;-64
2023/09/15 07:22:01;;;;;;;6.07;2.78;;;;;;;;;;5019493;28;20482;-65
2023/09/15 07:24:28;;;;;;;7.70;2.67;;;;;;;;;;5022227;28;20486;-63
2023/09/15 07:26:56;;;;;;;8.15;2.83;;;;;;;;;;5020556;28;20473;-65
2023/09/15 07:29:23;;;;;;;8.87;3.03;;;;;;;;;;5028708;28;20497;-62
2023/09/15 07:31:53;;;;;;;4.80;2.58;;;;;;;;;;5030282;28;20979;-64
2023/09/15 07:34:21;;;;;;;5.40;2.80;;;;;;;;;;5028128;28;20419;-63
2023/09/15 07:36:50;;;;;;;6.63;2.67;;;;;;;;;;5022073;28;20455;-63
2023/09/15 07:39:17;;;;;;;6.33;2.60;;;;;;;;;;5021220;28;20416;-63
2023/09/15 07:41:45;;;;;;;7.65;2.80;;;;;;;;;;5022329;28;20460;-60
2023/09/15 07:44:12;;;;;;;9.30;3.00;;;;;;;;;;5021737;28;20917;-61
2023/09/15 07:46:40;;;;;;;8.07;3.17;;;;;;;;;;5024925;28;20419;-62
2023/09/15 07:49:08;;;;;;;8.38;3.00;;;;;;;;;;5019507;28;20518;-62
2023/09/15 07:51:35;;;;;;;6.43;2.45;;;;;;;;;;5029342;28;20477;-67
2023/09/15 07:54:03;;;;;;;8.30;2.60;;;;;;;;;;5025056;28;20525;-64
2023/09/15 07:56:30;;;;;;;7.00;2.50;;;;;;;;;;5026119;28;20415;-63
2023/09/15 07:58:57;;;;;;;6.73;2.40;;;;;;;;;;5023650;28;20410;-63
2023/09/15 08:01:24;;;;;;;6.95;2.58;;;;;;;;;;5018961;28;20416;-65
2023/09/15 08:03:51;;;;;;;5.07;2.58;;;;;;;;;;5022257;28;20415;-61
2023/09/15 08:06:19;;;;;;;6.43;2.58;;;;;;;;;;5024622;28;20479;-62
2023/09/15 08:08:46;;;;;;;7.50;2.63;;;;;;;;;;5023191;28;20438;-62
2023/09/15 08:11:13;;;;;;;5.30;2.42;;;;;;;;;;5022893;28;20412;-61
2023/09/15 08:13:40;;;;;;;6.63;2.42;;;;;;;;;;5022673;28;20419;-62
2023/09/15 08:16:07;;;;;;;6.63;2.55;;;;;;;;;;5023152;28;20413;-62
2023/09/15 08:18:34;;;;;;;3.92;2.15;;;;;;;;;;5025890;28;20481;-62
2023/09/15 08:21:01;;;;;;;6.83;2.50;;;;;;;;;;5023758;28;20484;-61
2023/09/15 08:23:30;;;;;;;5.75;2.45;;;;;;;;;;5021844;28;20900;-61
2023/09/15 08:25:57;;;;;;;4.90;2.35;;;;;;;;;;5020483;28;20413;-62
2023/09/15 08:28:24;;;;;;;4.35;2.25;;;;;;;;;;5021186;28;20435;-62
2023/09/15 08:30:51;;;;;;;5.30;2.75;;;;;;;;;;5022693;28;20415;-62
2023/09/15 08:33:18;;;;;;;3.85;1.98;;;;;;;;;;5024246;28;20411;-62
2023/09/15 08:35:45;;;;;;;9.00;2.75;;;;;;;;;;5022844;28;20410;-62
2023/09/15 08:38:13;;;;;;;5.00;2.50;;;;;;;;;;5023130;28;20787;-62
2023/09/15 08:40:44;;;;;;;3.07;2.00;;;;;;;;;;5018956;28;20422;-62
2023/09/15 08:43:11;;;;;;;4.78;2.30;;;;;;;;;;5026197;28;20416;-62
2023/09/15 08:45:39;;;;;;;5.47;2.35;;;;;;;;;;5017948;28;20419;-64
2023/09/15 08:48:07;;;;;;;4.85;2.30;;;;;;;;;;5018851;28;20420;-63
2023/09/15 08:50:34;;;;;;;4.75;2.22;;;;;;;;;;5023217;28;20797;-62
2023/09/15 08:53:02;;;;;;;5.72;2.33;;;;;;;;;;5023867;28;21127;-61
2023/09/15 08:55:29;;;;;;;4.30;2.05;;;;;;;;;;5022595;28;20502;-61
2023/09/15 08:57:58;;;;;;;4.15;2.10;;;;;;;;;;5017707;28;20469;-61
2023/09/15 09:00:25;;;;;;;5.50;2.35;;;;;;;;;;5021933;28;20407;-61
2023/09/15 09:02:53;;;;;;;3.33;2.15;;;;;;;;;;5026433;28;20488;-61
2023/09/15 09:05:20;;;;;;;4.55;2.30;;;;;;;;;;5021929;28;20422;-61
2023/09/15 09:07:48;;;;;;;4.22;2.40;;;;;;;;;;5026948;28;20449;-62
2023/09/15 09:10:16;;;;;;;3.10;2.20;;;;;;;;;;5021990;28;20432;-62
2023/09/15 09:12:43;;;;;;;6.57;2.17;;;;;;;;;;5028465;28;20473;-61
2023/09/15 09:15:12;;;;;;;3.88;1.95;;;;;;;;;;5020376;28;20787;-61
2023/09/15 09:17:39;;;;;;;3.35;2.00;;;;;;;;;;5030896;28;20411;-61
2023/09/15 09:20:08;;;;;;;4.40;2.20;;;;;;;;;;5021922;28;20771;-63
2023/09/15 09:22:35;;;;;;;4.03;2.17;;;;;;;;;;5029092;28;20423;-63
2023/09/15 09:25:03;;;;;;;3.75;2.20;;;;;;;;;;5019521;28;20849;-63
2023/09/15 09:27:33;;;;;;;4.18;2.10;;;;;;;;;;5019579;28;20887;-62
2023/09/15 09:30:00;;;;;;;7.30;2.33;;;;;;;;;;5022260;28;20435;-63
2023/09/15 09:32:28;;;;;;;4.80;2.20;;;;;;;;;;5029424;28;20890;-61
2023/09/15 09:34:55;;;;;;;4.88;2.55;;;;;;;;;;5025852;28;20422;-61
2023/09/15 09:37:26;;;;;;;6.15;2.38;;;;;;;;;;5028834;28;20419;-61
2023/09/15 09:39:53;;;;;;;4.57;2.70;;;;;;;;;;5027138;28;20441;-61
2023/09/15 09:42:20;;;;;;;5.25;2.33;;;;;;;;;;5030587;28;20585;-60
2023/09/15 09:44:47;;;;;;;6.55;2.47;;;;;;;;;;5025407;28;20419;-62
2023/09/15 09:47:14;;;;;;;4.22;2.53;;;;;;;;;;5031130;28;20415;-62
2023/09/15 09:49:42;;;;;;;4.05;2.50;;;;;;;;;;5026285;28;20430;-64
2023/09/15 09:52:10;;;;;;;4.55;2.58;;;;;;;;;;5028504;28;20420;-64
2023/09/15 09:54:39;;;;;;;5.32;2.58;;;;;;;;;;5023366;28;20417;-62
2023/09/15 09:57:06;;;;;;;3.97;2.23;;;;;;;;;;5021412;28;20411;-63
2023/09/15 09:59:37;;;;;;;5.20;2.43;;;;;;;;;;5030084;28;20507;-63
2023/09/15 10:02:04;;;;;;;4.03;2.33;;;;;;;;;;5027636;28;20415;-64
2023/09/15 10:04:31;;;;;;;4.90;2.47;;;;;;;;;;5024827;28;20438;-64
2023/09/15 10:07:00;;;;;;;4.85;2.38;;;;;;;;;;5026962;28;20421;-64
2023/09/15 10:09:27;;;;;;;4.80;2.30;;;;;;;;;;5028245;28;20435;-66
2023/09/15 10:11:54;;;;;;;4.80;2.63;;;;;;;;;;5026208;28;20421;-65
2023/09/15 10:14:22;;;;;;;4.72;2.63;;;;;;;;;;5019677;28;20420;-64
2023/09/15 10:16:49;;;;;;;4.95;2.60;;;;;;;;;;5027475;28;20477;-64
2023/09/15 10:19:16;;;;;;;5.28;2.60;;;;;;;;;;5028599;28;20418;-63
2023/09/15 10:21:44;;;;;;;3.75;2.40;;;;;;;;;;5020933;28;20418;-63
2023/09/15 10:24:13;;;;;;;5.30;2.95;;;;;;;;;;5027191;28;20409;-64
2023/09/15 10:26:41;;;;;;;5.75;2.80;;;;;;;;;;5024407;28;20494;-64
2023/09/15 10:29:09;;;;;;;5.38;2.63;;;;;;;;;;5026856;28;20804;-64
2023/09/15 10:31:36;;;;;;;5.57;2.67;;;;;;;;;;5025741;28;20493;-65
2023/09/15 10:34:04;;;;;;;3.65;2.50;;;;;;;;;;5029345;28;20504;-65
2023/09/15 10:36:31;;;;;;;6.00;2.92;;;;;;;;;;5028802;28;20481;-64
2023/09/15 10:38:58;;;;;;;4.35;2.90;;;;;;;;;;5027610;28;20513;-62
2023/09/15 10:41:30;;;;;;;5.05;2.90;;;;;;;;;;5028263;28;20458;-63
2023/09/15 10:43:57;;;;;;;7.07;2.75;;;;;;;;;;5017786;28;20412;-63
2023/09/15 10:46:35;;;;;;;6.10;3.10;;;;;;;;;;5012243;28;20512;-64
2023/09/15 10:49:13;;;;;;;5.22;2.65;;;;;;;;;;5023259;28;20522;-63
2023/09/15 10:51:53;;;;;;;5.50;3.10;;;;;;;;;;5028565;28;20468;-63
2023/09/15 10:54:20;;;;;;;6.00;3.03;;;;;;;;;;5026795;28;20512;-63
2023/09/15 10:56:49;;;;;;;6.47;2.80;;;;;;;;;;5018082;28;20417;-63
2023/09/15 10:59:17;;;;;;;4.57;2.80;;;;;;;;;;5022230;28;20495;-63
2023/09/15 11:01:43;;;;;;;6.05;2.90;;;;;;;;;;5024708;28;20473;-64
2023/09/15 11:04:12;;;;;;;5.20;2.80;;;;;;;;;;5030048;28;20418;-64
2023/09/15 11:06:40;;;;;;;4.50;2.72;;;;;;;;;;5027486;28;20419;-63
2023/09/15 11:09:08;;;;;;;5.90;2.53;;;;;;;;;;5024739;28;20834;-64
2023/09/15 11:11:35;;;;;;;7.47;3.05;;;;;;;;;;5030900;28;20442;-63
2023/09/15 11:14:03;;;;;;;5.05;2.80;;;;;;;;;;5024524;28;20412;-63
2023/09/15 11:16:30;;;;;;;3.70;2.60;;;;;;;;;;5025893;28;20476;-63
2023/09/15 11:18:59;;;;;;;6.07;2.60;;;;;;;;;;5024712;28;20419;-63
2023/09/15 11:21:26;;;;;;;4.80;2.40;;;;;;;;;;5026089;28;20498;-63
2023/09/15 11:23:53;;;;;;;6.00;2.80;;;;;;;;;;5029221;28;20498;-64
2023/09/15 11:26:21;;;;;;;5.03;2.63;;;;;;;;;;5020215;28;20892;-66
2023/09/15 11:28:49;;;;;;;6.00;2.60;;;;;;;;;;5018133;28;20418;-66
2023/09/15 11:31:17;;;;;;;5.43;2.40;;;;;;;;;;5024214;28;20519;-66
2023/09/15 11:33:45;;;;;;;6.07;2.60;;;;;;;;;;5024704;28;20410;-63
2023/09/15 11:36:13;;;;;;;4.35;2.97;;;;;;;;;;5022873;28;20411;-63
2023/09/15 11:38:40;;;;;;;5.70;2.95;;;;;;;;;;5024934;28;20885;-63
2023/09/15 11:41:07;;;;;;;5.27;2.37;;;;;;;;;;5025407;28;20457;-62
2023/09/15 11:43:35;;;;;;;4.88;2.40;;;;;;;;;;5018630;28;20836;-63
2023/09/15 11:46:07;;;;;;;4.10;2.50;;;;;;;;;;5017503;28;20485;-63
2023/09/15 11:48:38;;;;;;;6.28;2.80;;;;;;;;;;5023701;28;20411;-63
2023/09/15 11:51:06;;;;;;;4.28;2.17;;;;;;;;;;5026173;28;20489;-63
2023/09/15 11:53:36;;;;;;;4.78;2.50;;;;;;;;;;5024412;28;20419;-63
2023/09/15 11:56:04;;;;;;;3.88;2.10;;;;;;;;;;5016328;28;20518;-64
2023/09/15 11:58:32;;;;;;;5.67;2.40;;;;;;;;;;5020231;28;20984;-63
2023/09/15 12:01:01;;;;;;;3.90;2.33;;;;;;;;;;5020898;28;20442;-64
2023/09/15 12:03:29;;;;;;;3.70;2.25;;;;;;;;;;5023005;28;20419;-64
2023/09/15 12:05:57;;;;;;;5.88;2.47;;;;;;;;;;5026482;28;20422;-65
2023/09/15 12:08:24;;;;;;;5.17;2.50;;;;;;;;;;5022750;28;20469;-66
2023/09/15 12:10:51;;;;;;;5.40;2.45;;;;;;;;;;5027215;28;20515;-67
2023/09/15 12:13:18;;;;;;;4.07;2.28;;;;;;;;;;5022105;28;20413;-66
2023/09/15 12:15:47;;;;;;;6.25;2.60;;;;;;;;;;5026761;28;20502;-66
2023/09/15 12:18:14;;;;;;;4.13;2.17;;;;;;;;;;5019280;28;20409;-66
2023/09/15 12:20:41;;;;;;;4.15;2.00;;;;;;;;;;5026847;28;20411;-65
2023/09/15 12:23:13;;;;;;;3.88;2.40;;;;;;;;;;5020215;28;20483;-66
2023/09/15 12:25:40;;;;;;;3.10;2.08;;;;;;;;;;5023063;28;20419;-66
2023/09/15 12:28:08;;;;;;;4.10;1.95;;;;;;;;;;5018360;28;20449;-67
2023/09/15 12:30:35;;;;;;;3.70;2.00;;;;;;;;;;5026105;28;20435;-67
2023/09/15 12:33:05;;;;;;;3.55;1.92;;;;;;;;;;5025028;28;20897;-66
2023/09/15 12:35:39;;;;;;;3.75;1.80;;;;;;;;;;5025858;28;20494;-66
2023/09/15 12:38:06;;;;;;;3.20;1.90;;;;;;;;;;5022755;28;20454;-66
2023/09/15 12:40:35;;;;;;;5.30;2.30;;;;;;;;;;5025929;28;20461;-65
2023/09/15 12:43:02;;;;;;;4.22;2.10;;;;;;;;;;5022805;28;20506;-66
2023/09/15 12:45:29;;;;;;;4.97;2.28;;;;;;;;;;5024431;28;20453;-67
2023/09/15 12:47:56;;;;;;;4.20;2.00;;;;;;;;;;5022570;28;20967;-67
2023/09/15 12:50:23;;;;;;;3.92;2.00;;;;;;;;;;5023829;28;20447;-67
2023/09/15 12:52:50;;;;;;;4.10;2.10;;;;;;;;;;5022287;28;20418;-67
2023/09/15 12:55:18;;;;;;;3.85;2.00;;;;;;;;;;5020229;28;20412;-68
2023/09/15 12:57:46;;;;;;;4.35;2.00;;;;;;;;;;5019021;28;20501;-68
2023/09/15 13:00:14;;;;;;;5.72;2.35;;;;;;;;;;5024361;28;20413;-67
2023/09/15 13:02:41;;;;;;;4.03;1.88;;;;;;;;;;5026615;28;20418;-67
2023/09/15 13:05:08;;;;;;;4.13;2.03;;;;;;;;;;5025091;28;20432;-68
2023/09/15 13:07:37;;;;;;;3.67;1.70;;;;;;;;;;5019098;28;20416;-67
2023/09/15 13:10:04;;;;;;;4.07;1.80;;;;;;;;;;5023063;28;20498;-68
2023/09/15 13:12:32;;;;;;;3.27;2.00;;;;;;;;;;5028482;28;20415;-68
2023/09/15 13:15:00;;;;;;;2.67;1.63;;;;;;;;;;5025388;28;20414;-67
2023/09/15 13:17:27;;;;;;;2.30;1.55;;;;;;;;;;5027489;28;20476;-68
2023/09/15 13:19:55;;;;;;;3.53;1.60;;;;;;;;;;5026238;28;20918;-68
2023/09/15 13:22:23;;;;;;;2.70;1.63;;;;;;;;;;5029883;28;20416;-65
2023/09/15 13:24:51;;;;;;;4.07;1.70;;;;;;;;;;5025532;28;20506;-65
2023/09/15 13:27:18;;;;;;;2.00;1.40;;;;;;;;;;5024898;28;20413;-68
2023/09/15 13:29:45;;;;;;;4.28;1.60;;;;;;;;;;5019713;28;20414;-67
2023/09/15 13:32:14;;;;;;;4.47;1.60;;;;;;;;;;5022071;28;20418;-67
2023/09/15 13:34:41;;;;;;;3.70;1.60;;;;;;;;;;5024489;28;20461;-66
2023/09/15 13:37:09;;;;;;;3.90;1.58;;;;;;;;;;5024263;28;20426;-66
2023/09/15 13:39:38;;;;;;;5.03;1.88;;;;;;;;;;5032969;28;20446;-65
2023/09/15 13:42:05;;;;;;;2.30;1.50;;;;;;;;;;5030722;28;20912;-66
2023/09/15 13:44:32;;;;;;;3.42;1.60;;;;;;;;;;5027475;28;20897;-63
2023/09/15 13:46:59;;;;;;;2.72;1.45;;;;;;;;;;5031678;28;20425;-64
2023/09/15 13:49:27;;;;;;;3.17;1.40;;;;;;;;;;5026332;28;20412;-67
2023/09/15 13:51:54;;;;;;;3.28;1.63;;;;;;;;;;5030024;28;20427;-63
2023/09/15 13:54:21;;;;;;;2.87;1.40;;;;;;;;;;5022444;28;20489;-63
2023/09/15 13:56:49;;;;;;;4.50;1.60;;;;;;;;;;5020319;28;20409;-64
2023/09/15 13:59:16;;;;;;;2.15;1.40;;;;;;;;;;5016212;28;20467;-65
2023/09/15 14:01:45;;;;;;;2.28;1.25;;;;;;;;;;5024995;28;21290;-65
2023/09/15 14:04:16;;;;;;;1.90;1.50;;;;;;;;;;5019834;28;20418;-64
2023/09/15 14:06:47;;;;;;;3.53;1.70;;;;;;;;;;5015814;28;20415;-64
2023/09/15 14:09:14;;;;;;;2.40;1.35;;;;;;;;;;5014701;28;20440;-66
2023/09/15 14:11:42;;;;;;;3.80;1.80;;;;;;;;;;5017625;28;20487;-67
2023/09/15 14:14:09;;;;;;;3.55;1.80;;;;;;;;;;5024862;28;20419;-66
2023/09/15 14:16:37;;;;;;;2.70;1.70;;;;;;;;;;5016525;28;20444;-67
2023/09/15 14:19:04;;;;;;;3.20;1.85;;;;;;;;;;5020131;28;20421;-66
2023/09/15 14:21:31;;;;;;;3.90;1.70;;;;;;;;;;5019057;28;20413;-66
2023/09/15 14:23:59;;;;;;;2.40;1.83;;;;;;;;;;5020213;28;20421;-66
2023/09/15 14:26:26;;;;;;;2.72;1.58;;;;;;;;;;5019743;28;20435;-67
2023/09/15 14:28:53;;;;;;;2.90;1.50;;;;;;;;;;5025194;28;20411;-66
2023/09/15 14:31:21;;;;;;;3.40;1.50;;;;;;;;;;5025487;28;20432;-65
2023/09/15 14:33:48;;;;;;;2.53;1.40;;;;;;;;;;5028718;28;20442;-65
2023/09/15 14:36:15;;;;;;;2.20;1.52;;;;;;;;;;5027530;28;20496;-65
2023/09/15 14:38:42;;;;;;;3.20;1.60;;;;;;;;;;5028773;28;20464;-65
2023/09/15 14:41:10;;;;;;;3.10;1.52;;;;;;;;;;5027734;28;20409;-65
2023/09/15 14:43:40;;;;;;;2.85;1.63;;;;;;;;;;5026571;28;20414;-65
2023/09/15 14:46:07;;;;;;;2.30;1.70;;;;;;;;;;5023925;28;20417;-64